Time;durP1;ratioP1;P1;durP2;ratioP2;P2;SDS_P1;SDS_P2;PMS_P1;PMS_P2;Temp;Humidity;BMP_temperature;BMP_pressure;BME280_temperature;BME280_humidity;BME280_pressure;Samples;Min_cycle;Max_cycle;Signal;HPM_P1;HPM_P2
2022/05/14 00:00:58;;;;;;;10.70;4.35;;;12.80;99.90;;;;;;5010233;28;20184;-68
2022/05/14 00:03:25;;;;;;;7.53;4.32;;;12.80;99.90;;;;;;5009595;28;20065;-68
2022/05/14 00:05:55;;;;;;;4.95;3.42;;;12.80;99.90;;;;;;5016385;28;20115;-67
2022/05/14 00:08:23;;;;;;;7.13;4.18;;;12.80;99.90;;;;;;5012754;28;20085;-67
2022/05/14 00:13:34;;;;;;;6.85;3.80;;;12.70;99.90;;;;;;5016443;28;20053;-68
2022/05/14 00:16:00;;;;;;;7.05;3.72;;;12.70;99.90;;;;;;5015915;28;20073;-68
2022/05/14 00:18:26;;;;;;;6.00;2.90;;;12.70;99.90;;;;;;5017213;28;20066;-68
2022/05/14 00:20:52;;;;;;;6.85;3.83;;;12.70;99.90;;;;;;5017104;28;20068;-67
2022/05/14 00:23:18;;;;;;;5.38;3.63;;;12.70;99.90;;;;;;5017579;28;20106;-68
2022/05/14 00:25:44;;;;;;;11.65;3.85;;;12.70;99.90;;;;;;5017413;28;20045;-67
2022/05/14 00:28:11;;;;;;;9.68;4.43;;;12.60;99.90;;;;;;5015328;28;20088;-67
2022/05/14 00:30:37;;;;;;;11.18;4.20;;;12.60;99.90;;;;;;5016217;28;20049;-68
2022/05/14 00:33:03;;;;;;;11.07;4.70;;;12.60;99.90;;;;;;5016170;28;20839;-68
2022/05/14 00:35:30;;;;;;;7.00;4.03;;;12.60;99.90;;;;;;5015735;28;20056;-68
2022/05/14 00:37:55;;;;;;;7.78;3.92;;;12.50;99.90;;;;;;5015307;28;20053;-68
2022/05/14 00:40:44;;;;;;;8.80;4.47;;;12.50;99.90;;;;;;5015870;28;20077;-67
2022/05/14 00:43:10;;;;;;;11.63;4.88;;;12.40;99.90;;;;;;5014110;28;20076;-67
2022/05/14 00:45:40;;;;;;;7.03;3.75;;;12.40;99.90;;;;;;5016955;28;20517;-68
2022/05/14 00:48:07;;;;;;;7.78;5.13;;;12.40;99.90;;;;;;5015082;28;20405;-68
2022/05/14 00:50:41;;;;;;;7.43;4.53;;;12.40;99.90;;;;;;5016224;28;20053;-68
2022/05/14 00:53:20;;;;;;;14.23;4.97;;;12.40;99.90;;;;;;5015644;28;20643;-68
2022/05/14 00:55:50;;;;;;;10.13;4.88;;;12.40;99.90;;;;;;5014299;28;20053;-68
2022/05/14 00:58:47;;;;;;;7.03;3.75;;;12.40;99.90;;;;;;5015681;28;20050;-68
2022/05/14 01:01:13;;;;;;;11.73;3.65;;;12.40;99.90;;;;;;5014682;28;20883;-68
2022/05/14 01:03:39;;;;;;;10.02;4.82;;;12.40;99.90;;;;;;5013604;28;20124;-68
2022/05/14 01:06:08;;;;;;;9.13;4.63;;;12.30;99.90;;;;;;5014349;28;20133;-67
2022/05/14 01:08:34;;;;;;;6.93;4.20;;;12.40;99.90;;;;;;5016086;28;20456;-68
2022/05/14 01:11:00;;;;;;;6.47;4.15;;;12.40;99.90;;;;;;5014252;28;20056;-68
2022/05/14 01:13:27;;;;;;;9.07;4.25;;;12.40;99.90;;;;;;5014796;28;20057;-68
2022/05/14 01:15:58;;;;;;;10.70;3.83;;;12.40;99.90;;;;;;5015740;28;20572;-68
2022/05/14 01:18:26;;;;;;;7.55;4.07;;;12.40;99.90;;;;;;5015918;28;20132;-68
2022/05/14 01:21:01;;;;;;;11.98;4.78;;;12.50;99.90;;;;;;5016235;28;20594;-67
2022/05/14 01:26:27;;;;;;;11.05;5.18;;;12.40;99.90;;;;;;5015163;28;20056;-68
2022/05/14 01:26:28;;;;;;;8.05;4.47;;;12.50;99.90;;;;;;5014808;28;20077;-67
2022/05/14 01:28:56;;;;;;;9.57;4.00;;;12.50;99.90;;;;;;5016237;28;20049;-68
2022/05/14 01:31:22;;;;;;;11.40;4.45;;;12.50;99.90;;;;;;5015616;28;20060;-68
2022/05/14 01:33:47;;;;;;;11.23;4.63;;;12.50;99.90;;;;;;5016493;28;20052;-68
2022/05/14 01:36:13;;;;;;;7.90;4.55;;;12.50;99.90;;;;;;5009060;28;20029;-67
2022/05/14 01:38:38;;;;;;;13.85;5.28;;;12.50;99.90;;;;;;5007311;28;20052;-68
2022/05/14 01:41:04;;;;;;;11.60;5.05;;;12.50;99.90;;;;;;5015421;28;20042;-68
2022/05/14 01:43:30;;;;;;;4.65;3.88;;;12.40;99.90;;;;;;5015915;28;20061;-68
2022/05/14 01:45:56;;;;;;;12.10;5.53;;;12.40;99.90;;;;;;5010720;28;20050;-68
2022/05/14 01:48:22;;;;;;;12.82;5.45;;;12.40;99.90;;;;;;5008649;28;20513;-68
2022/05/14 01:50:47;;;;;;;9.30;5.28;;;12.40;99.90;;;;;;5013560;28;20068;-67
2022/05/14 01:53:13;;;;;;;14.70;4.32;;;12.40;99.90;;;;;;5011576;28;20156;-69
2022/05/14 01:55:38;;;;;;;8.60;5.22;;;12.40;99.90;;;;;;5010288;28;20045;-69
2022/05/14 01:58:36;;;;;;;10.98;4.70;;;12.30;99.90;;;;;;5014989;28;20114;-70
2022/05/14 02:00:50;;;;;;;10.13;6.03;;;12.30;99.90;;;;;;5013887;28;20057;-70
2022/05/14 02:03:16;;;;;;;17.23;5.80;;;12.30;99.90;;;;;;5014522;28;20057;-68
2022/05/14 02:05:42;;;;;;;10.27;5.72;;;12.30;99.90;;;;;;5015024;28;20041;-67
2022/05/14 02:08:07;;;;;;;14.40;6.47;;;12.30;99.90;;;;;;5013313;28;20064;-68
2022/05/14 02:10:33;;;;;;;12.85;6.22;;;12.30;99.90;;;;;;5014026;28;20061;-68
2022/05/14 02:12:59;;;;;;;13.77;6.35;;;12.30;99.90;;;;;;5013324;28;20866;-68
2022/05/14 02:15:24;;;;;;;14.75;5.00;;;12.20;99.90;;;;;;5015692;28;20123;-68
2022/05/14 02:17:50;;;;;;;12.68;4.70;;;12.20;99.90;;;;;;5014314;28;20138;-68
2022/05/14 02:20:16;;;;;;;9.80;4.40;;;12.20;99.90;;;;;;5014546;28;20044;-68
2022/05/14 02:22:42;;;;;;;7.57;5.40;;;12.10;99.90;;;;;;5013551;28;20164;-68
2022/05/14 02:25:09;;;;;;;15.98;6.10;;;12.10;99.90;;;;;;5013713;28;20846;-67
2022/05/14 02:27:34;;;;;;;11.38;6.07;;;12.00;99.90;;;;;;5007270;28;20056;-67
2022/05/14 02:30:00;;;;;;;14.45;5.43;;;12.00;99.90;;;;;;5013890;28;20049;-68
2022/05/14 02:32:27;;;;;;;13.55;7.13;;;12.00;99.90;;;;;;5015377;28;20056;-68
2022/05/14 02:34:53;;;;;;;8.77;5.80;;;11.90;99.90;;;;;;5014832;28;20131;-69
2022/05/14 02:37:24;;;;;;;8.55;5.03;;;11.80;99.90;;;;;;5013557;28;20077;-69
2022/05/14 02:39:51;;;;;;;9.85;5.75;;;11.80;99.90;;;;;;5013359;28;20045;-70
2022/05/14 02:42:16;;;;;;;18.58;6.50;;;11.80;99.90;;;;;;5014985;28;20057;-69
2022/05/14 02:44:42;;;;;;;16.52;6.45;;;11.80;99.90;;;;;;5014925;28;20628;-70
2022/05/14 02:47:08;;;;;;;11.07;5.82;;;11.70;99.90;;;;;;5015134;28;20914;-70
2022/05/14 02:49:34;;;;;;;8.35;5.40;;;11.70;99.90;;;;;;5013754;28;20045;-70
2022/05/14 02:52:00;;;;;;;10.60;6.55;;;11.60;99.90;;;;;;5015259;28;20056;-70
2022/05/14 02:54:25;;;;;;;12.98;6.40;;;11.60;99.90;;;;;;5015277;28;20068;-70
2022/05/14 02:56:51;;;;;;;14.70;6.47;;;11.60;99.90;;;;;;5014657;28;20042;-70
2022/05/14 02:59:18;;;;;;;21.90;7.75;;;11.50;99.90;;;;;;5013243;28;20053;-70
2022/05/14 03:01:49;;;;;;;12.02;5.53;;;11.50;99.90;;;;;;5013540;28;20052;-69
2022/05/14 03:04:24;;;;;;;11.75;6.13;;;11.40;99.90;;;;;;5013241;28;20045;-70
2022/05/14 03:06:51;;;;;;;15.18;6.38;;;11.40;99.90;;;;;;5015301;28;20789;-69
2022/05/14 03:09:17;;;;;;;9.00;5.85;;;11.40;99.90;;;;;;5013301;28;20064;-70
2022/05/14 03:11:43;;;;;;;16.92;6.28;;;11.40;99.90;;;;;;5015464;28;20696;-70
2022/05/14 03:14:09;;;;;;;15.25;8.18;;;11.40;99.90;;;;;;5015644;28;20083;-70
2022/05/14 03:16:35;;;;;;;13.07;6.13;;;11.40;99.90;;;;;;5015507;28;20610;-70
2022/05/14 03:19:01;;;;;;;15.80;6.25;;;11.40;99.90;;;;;;5017185;28;20703;-70
2022/05/14 03:21:27;;;;;;;12.40;6.03;;;11.40;99.90;;;;;;5018372;28;20170;-69
2022/05/14 03:23:52;;;;;;;11.50;6.25;;;11.40;99.90;;;;;;5018570;28;20134;-69
2022/05/14 03:26:18;;;;;;;14.65;6.55;;;11.40;99.90;;;;;;5019610;28;20045;-70
2022/05/14 03:28:43;;;;;;;15.27;7.70;;;11.30;99.90;;;;;;5017971;28;20049;-70
2022/05/14 03:31:09;;;;;;;14.57;7.97;;;11.30;99.90;;;;;;5018226;28;20045;-70
2022/05/14 03:33:34;;;;;;;23.52;8.38;;;11.30;99.90;;;;;;5018860;28;20049;-70
2022/05/14 03:36:00;;;;;;;12.70;7.55;;;11.30;99.90;;;;;;5018748;28;20052;-70
2022/05/14 03:38:25;;;;;;;11.57;5.18;;;11.30;99.90;;;;;;5018005;28;20052;-70
2022/05/14 03:40:51;;;;;;;15.73;7.50;;;11.30;99.90;;;;;;5017061;28;20037;-70
2022/05/14 03:43:17;;;;;;;17.00;8.60;;;11.20;99.90;;;;;;5017490;28;20159;-70
2022/05/14 03:45:42;;;;;;;13.75;6.72;;;11.20;99.90;;;;;;5017937;28;20964;-69
2022/05/14 03:48:08;;;;;;;13.48;5.45;;;11.20;99.90;;;;;;5017553;28;20049;-69
2022/05/14 03:50:34;;;;;;;10.50;7.03;;;11.20;99.90;;;;;;5017314;28;20068;-70
2022/05/14 03:52:59;;;;;;;14.02;7.13;;;11.20;99.90;;;;;;5018056;28;20191;-69
2022/05/14 03:55:25;;;;;;;11.82;5.68;;;11.20;99.90;;;;;;5017955;28;20061;-69
2022/05/14 03:57:51;;;;;;;15.32;7.78;;;11.20;99.90;;;;;;5017967;28;20068;-69
2022/05/14 04:00:17;;;;;;;12.57;5.55;;;11.20;99.90;;;;;;5017954;28;20049;-69
2022/05/14 04:02:43;;;;;;;12.75;7.50;;;11.20;99.90;;;;;;5016683;28;20632;-69
2022/05/14 04:05:09;;;;;;;15.00;6.00;;;11.30;99.90;;;;;;5018003;28;20053;-69
2022/05/14 04:07:34;;;;;;;17.23;8.93;;;11.30;99.90;;;;;;5017476;28;20375;-69
2022/05/14 04:10:00;;;;;;;20.05;9.77;;;11.30;99.90;;;;;;5017604;28;20088;-69
2022/05/14 04:12:27;;;;;;;13.80;5.90;;;11.30;99.90;;;;;;5017114;28;20084;-69
2022/05/14 04:14:53;;;;;;;9.32;6.03;;;11.40;99.90;;;;;;5009832;28;20482;-69
2022/05/14 04:17:18;;;;;;;14.80;6.63;;;11.40;99.90;;;;;;5000861;28;20049;-69
2022/05/14 04:19:44;;;;;;;18.85;8.75;;;11.40;99.90;;;;;;5011035;28;20048;-70
2022/05/14 04:22:10;;;;;;;16.77;7.32;;;11.40;99.90;;;;;;4996503;28;20949;-69
2022/05/14 04:24:36;;;;;;;14.80;8.10;;;11.40;99.90;;;;;;5003984;28;20076;-70
2022/05/14 04:27:02;;;;;;;17.20;8.57;;;11.50;99.90;;;;;;5004100;28;20124;-69
2022/05/14 04:29:27;;;;;;;17.40;7.78;;;11.50;99.90;;;;;;5004275;28;21856;-69
2022/05/14 04:31:53;;;;;;;15.55;8.18;;;11.50;99.90;;;;;;5001069;28;20034;-69
2022/05/14 04:34:20;;;;;;;13.80;8.00;;;11.60;99.90;;;;;;5008568;28;20046;-70
2022/05/14 04:36:45;;;;;;;23.75;9.57;;;11.60;99.90;;;;;;5002547;28;20057;-69
2022/05/14 04:39:11;;;;;;;13.15;6.18;;;11.70;99.90;;;;;;4999503;28;20046;-69
2022/05/14 04:41:36;;;;;;;19.63;9.10;;;11.70;99.90;;;;;;5001698;28;20052;-70
2022/05/14 04:44:03;;;;;;;14.35;8.13;;;11.70;99.90;;;;;;5000002;28;20055;-69
2022/05/14 04:46:28;;;;;;;18.02;9.38;;;11.80;99.90;;;;;;5001573;28;20073;-70
2022/05/14 04:48:54;;;;;;;15.45;8.82;;;11.80;99.90;;;;;;5001626;28;20148;-69
2022/05/14 04:51:20;;;;;;;19.83;9.52;;;11.90;99.90;;;;;;5000015;28;20735;-69
2022/05/14 04:53:46;;;;;;;18.23;8.07;;;11.90;99.90;;;;;;5001282;28;20049;-70
2022/05/14 04:56:12;;;;;;;20.25;9.18;;;12.00;99.90;;;;;;5003728;28;20065;-70
2022/05/14 04:58:37;;;;;;;22.33;6.95;;;12.00;99.90;;;;;;5012540;28;20110;-69
2022/05/14 05:01:03;;;;;;;17.27;6.60;;;12.10;99.90;;;;;;5001716;28;20041;-70
2022/05/14 05:03:29;;;;;;;21.90;8.15;;;12.10;99.90;;;;;;5000909;28;20037;-70
2022/05/14 05:05:57;;;;;;;19.23;8.75;;;12.20;99.90;;;;;;5002311;28;20132;-70
2022/05/14 05:08:24;;;;;;;17.10;7.55;;;12.20;99.90;;;;;;5009846;28;20060;-70
2022/05/14 05:10:51;;;;;;;17.88;6.60;;;12.20;99.90;;;;;;5004376;28;20245;-70
2022/05/14 05:13:20;;;;;;;19.58;9.73;;;12.20;99.90;;;;;;5001459;28;20049;-69
2022/05/14 05:15:46;;;;;;;17.33;9.07;;;12.20;99.90;;;;;;4999024;28;20136;-70
2022/05/14 05:18:12;;;;;;;17.15;8.77;;;12.20;99.90;;;;;;5001216;28;20130;-70
2022/05/14 05:20:40;;;;;;;13.93;7.32;;;12.20;99.90;;;;;;5002767;28;20092;-70
2022/05/14 05:23:06;;;;;;;23.77;8.85;;;12.30;99.90;;;;;;5007811;28;20124;-70
2022/05/14 05:25:32;;;;;;;17.10;8.27;;;12.30;99.90;;;;;;5005330;28;20077;-70
2022/05/14 05:27:58;;;;;;;23.23;9.68;;;12.40;99.90;;;;;;4999637;28;20123;-70
2022/05/14 05:30:24;;;;;;;18.88;7.65;;;12.60;99.90;;;;;;5005905;28;20203;-70
2022/05/14 05:32:51;;;;;;;14.25;8.02;;;12.80;99.90;;;;;;5011281;28;20790;-70
2022/05/14 05:35:17;;;;;;;19.52;7.53;;;12.90;99.90;;;;;;5002529;28;20053;-70
2022/05/14 05:37:42;;;;;;;21.73;8.48;;;13.10;99.90;;;;;;5000416;28;20050;-70
2022/05/14 05:40:09;;;;;;;17.63;8.02;;;13.20;99.90;;;;;;5004496;28;20080;-71
2022/05/14 05:42:34;;;;;;;22.95;8.65;;;13.30;99.90;;;;;;5012975;28;20065;-70
2022/05/14 05:45:00;;;;;;;23.00;8.20;;;13.40;99.90;;;;;;5003729;28;20046;-70
2022/05/14 05:47:25;;;;;;;17.50;8.68;;;13.40;99.90;;;;;;5000389;28;20165;-70
2022/05/14 05:49:51;;;;;;;22.83;9.32;;;13.50;99.90;;;;;;5008738;28;20783;-70
2022/05/14 05:52:17;;;;;;;24.05;9.30;;;13.50;99.90;;;;;;5006003;28;20048;-70
2022/05/14 05:57:35;;;;;;;21.85;9.20;;;14.10;99.90;;;;;;5001705;28;20096;-70
2022/05/14 06:00:04;;;;;;;12.73;8.05;;;13.70;99.90;;;;;;4998324;28;20049;-70
2022/05/14 06:02:29;;;;;;;14.70;6.38;;;13.80;99.90;;;;;;4996282;28;20106;-70
2022/05/14 06:04:55;;;;;;;20.67;8.13;;;13.90;99.90;;;;;;4996441;28;20335;-70
2022/05/14 06:07:21;;;;;;;21.65;7.60;;;14.00;99.90;;;;;;5003728;28;20512;-70
2022/05/14 06:09:47;;;;;;;20.88;8.40;;;14.00;99.90;;;;;;5000629;28;20061;-70
2022/05/14 06:12:13;;;;;;;16.88;7.20;;;14.10;99.90;;;;;;4999198;28;20045;-70
2022/05/14 06:14:39;;;;;;;20.42;9.32;;;14.20;99.90;;;;;;5003099;28;20076;-71
2022/05/14 06:17:05;;;;;;;20.98;7.45;;;14.30;99.90;;;;;;5007224;28;20120;-70
2022/05/14 06:19:30;;;;;;;14.93;8.23;;;14.40;99.90;;;;;;5001653;28;20566;-70
2022/05/14 06:21:56;;;;;;;17.73;7.82;;;14.50;99.90;;;;;;4998786;28;20048;-70
2022/05/14 06:24:22;;;;;;;17.63;7.63;;;14.50;99.90;;;;;;4998010;28;20449;-70
2022/05/14 06:26:47;;;;;;;15.50;8.35;;;14.70;99.90;;;;;;4998048;28;20198;-70
2022/05/14 06:29:13;;;;;;;16.67;6.95;;;14.80;99.90;;;;;;4999958;28;20060;-70
2022/05/14 06:31:39;;;;;;;17.38;6.82;;;14.90;99.90;;;;;;4998997;28;20068;-70
2022/05/14 06:34:05;;;;;;;17.08;7.20;;;15.10;99.90;;;;;;4999950;28;22229;-70
2022/05/14 06:36:31;;;;;;;14.68;7.95;;;15.60;99.90;;;;;;4999371;28;20041;-70
2022/05/14 06:38:56;;;;;;;13.95;6.88;;;16.40;99.90;;;;;;5000773;28;20519;-70
2022/05/14 06:41:22;;;;;;;20.40;7.43;;;17.20;99.90;;;;;;4998693;28;20076;-70
2022/05/14 06:43:48;;;;;;;14.82;7.07;;;17.70;99.90;;;;;;5000299;28;20076;-71
2022/05/14 06:46:13;;;;;;;20.02;6.57;;;18.00;99.90;;;;;;5001091;28;20080;-71
2022/05/14 06:48:40;;;;;;;21.73;7.38;;;18.30;99.90;;;;;;5004347;28;20049;-70
2022/05/14 06:51:09;;;;;;;15.20;5.88;;;18.70;99.90;;;;;;5002733;28;20041;-70
2022/05/14 06:53:36;;;;;;;11.43;5.38;;;19.30;99.90;;;;;;5002375;28;20057;-70
2022/05/14 06:56:03;;;;;;;13.98;6.25;;;19.90;99.90;;;;;;5001513;28;20081;-68
2022/05/14 06:58:34;;;;;;;12.13;6.10;;;20.60;99.90;;;;;;5002894;28;20068;-68
2022/05/14 07:01:00;;;;;;;18.42;6.82;;;21.10;99.20;;;;;;5004064;28;20128;-68
2022/05/14 07:08:56;;;;;;;13.57;4.93;;;21.70;98.50;;;;;;5008044;28;20501;-67
2022/05/14 07:11:22;;;;;;;16.60;5.32;;;22.20;97.90;;;;;;5003193;28;20053;-67
2022/05/14 07:13:47;;;;;;;14.70;5.25;;;22.60;95.20;;;;;;5003952;28;20784;-67
2022/05/14 07:16:13;;;;;;;9.70;5.25;;;22.30;96.00;;;;;;5000122;28;20049;-67
2022/05/14 07:18:39;;;;;;;11.75;4.90;;;22.70;95.50;;;;;;5000998;28;20072;-67
2022/05/14 07:21:04;;;;;;;14.65;5.18;;;23.00;95.00;;;;;;4999861;28;20133;-67
2022/05/14 07:23:30;;;;;;;13.45;4.78;;;22.90;94.20;;;;;;4996736;28;20057;-67
2022/05/14 07:26:05;;;;;;;17.35;4.85;;;23.60;93.70;;;;;;4999481;28;20049;-67
2022/05/14 07:28:33;;;;;;;13.55;4.78;;;23.50;91.70;;;;;;4998844;28;20928;-67
2022/05/14 07:30:59;;;;;;;14.05;5.32;;;24.00;92.40;;;;;;4998742;28;20064;-67
2022/05/14 07:33:26;;;;;;;10.88;4.53;;;22.90;91.60;;;;;;4999178;28;20049;-67
2022/05/14 07:35:52;;;;;;;14.38;4.93;;;22.20;92.20;;;;;;5000885;28;20116;-67
2022/05/14 07:38:18;;;;;;;14.20;4.63;;;21.80;92.60;;;;;;5001491;28;20073;-67
2022/05/14 07:40:43;;;;;;;11.50;5.72;;;21.80;90.90;;;;;;4998009;28;20646;-67
2022/05/14 07:43:16;;;;;;;9.50;3.75;;;21.90;91.80;;;;;;5000753;28;20045;-68
2022/05/14 07:45:43;;;;;;;;;;;22.20;88.80;;;;;;5002273;28;20050;-66
2022/05/14 07:48:20;;;;;;;16.27;4.75;;;22.40;83.50;;;;;;5003454;28;19931;-67
2022/05/14 07:50:46;;;;;;;9.20;3.92;;;22.80;89.40;;;;;;5002370;28;20049;-67
2022/05/14 07:53:14;;;;;;;6.47;3.60;;;23.10;88.30;;;;;;5006776;28;20042;-67
2022/05/14 07:55:39;;;;;;;11.48;3.97;;;22.60;85.30;;;;;;5007859;28;20034;-67
2022/05/14 07:58:05;;;;;;;12.85;4.00;;;22.90;88.50;;;;;;5004427;28;20048;-67
2022/05/14 08:00:32;;;;;;;10.65;4.57;;;22.80;88.10;;;;;;5000360;28;20051;-67
2022/05/14 08:02:58;;;;;;;8.43;3.80;;;23.10;87.20;;;;;;5000726;28;20088;-67
2022/05/14 08:05:24;;;;;;;10.30;4.00;;;23.60;84.30;;;;;;5001656;28;20928;-67
2022/05/14 08:07:50;;;;;;;8.05;4.25;;;23.80;83.80;;;;;;5001902;28;20083;-68
2022/05/14 08:10:16;;;;;;;13.52;4.90;;;24.40;83.60;;;;;;5004620;28;20747;-67
2022/05/14 08:12:50;;;;;;;10.52;3.80;;;24.90;82.80;;;;;;4999167;28;20049;-67
2022/05/14 08:15:16;;;;;;;10.75;4.05;;;25.10;77.50;;;;;;5000386;28;20448;-67
2022/05/14 08:17:42;;;;;;;10.40;3.70;;;25.40;82.10;;;;;;5000629;28;20038;-67
2022/05/14 08:20:08;;;;;;;10.80;4.55;;;25.50;81.20;;;;;;5002901;28;20048;-67
2022/05/14 08:25:19;;;;;;;9.30;3.80;;;25.30;78.50;;;;;;5000693;28;20057;-68
2022/05/14 08:27:45;;;;;;;11.15;4.20;;;24.30;76.10;;;;;;5004405;28;20047;-68
2022/05/14 08:30:23;;;;;;;9.57;3.92;;;23.60;78.10;;;;;;5006746;28;20168;-68
2022/05/14 08:32:49;;;;;;;12.60;4.93;;;24.10;75.90;;;;;;5006859;28;20607;-68
2022/05/14 08:35:16;;;;;;;11.90;4.55;;;24.20;79.10;;;;;;5006281;28;20049;-68
2022/05/14 08:37:42;;;;;;;13.38;4.28;;;26.20;80.80;;;;;;5002470;28;20049;-68
2022/05/14 08:40:14;;;;;;;12.02;4.63;;;25.40;78.50;;;;;;4998865;28;20081;-68
2022/05/14 08:42:40;;;;;;;6.93;3.80;;;25.00;74.90;;;;;;5004793;28;20053;-68
2022/05/14 08:45:10;;;;;;;13.57;5.38;;;25.20;77.50;;;;;;5006490;28;20404;-68
2022/05/14 08:47:40;;;;;;;7.22;3.83;;;24.90;75.80;;;;;;5005410;28;20077;-69
2022/05/14 08:50:08;;;;;;;11.75;4.60;;;23.60;77.40;;;;;;5000482;28;20065;-68
2022/05/14 08:52:35;;;;;;;14.93;5.70;;;22.90;78.50;;;;;;4994435;28;20061;-68
2022/05/14 08:55:05;;;;;;;11.07;4.70;;;22.20;79.40;;;;;;4997469;28;20077;-68
2022/05/14 08:57:44;;;;;;;14.73;4.68;;;22.50;79.60;;;;;;5004539;28;20046;-69
2022/05/14 09:00:10;;;;;;;15.77;4.93;;;23.20;77.10;;;;;;5003945;28;20049;-68
2022/05/14 09:02:39;;;;;;;9.23;4.50;;;23.70;77.90;;;;;;5004321;28;20071;-68
2022/05/14 09:05:28;;;;;;;8.18;4.38;;;24.20;77.10;;;;;;5004012;28;20127;-68
2022/05/14 09:07:54;;;;;;;10.35;3.83;;;23.70;74.60;;;;;;4999866;28;20690;-67
2022/05/14 09:10:22;;;;;;;9.18;4.63;;;23.40;76.30;;;;;;5001485;28;20328;-68
2022/05/14 09:12:53;;;;;;;9.80;3.95;;;23.80;75.10;;;;;;5000734;28;20053;-67
2022/05/14 09:15:20;;;;;;;12.38;4.25;;;23.60;74.80;;;;;;4999688;28;20421;-66
2022/05/14 09:17:45;;;;;;;14.10;4.93;;;24.10;74.40;;;;;;5000499;28;20049;-67
2022/05/14 09:20:23;;;;;;;14.38;4.47;;;23.70;73.90;;;;;;5001355;28;20080;-67
2022/05/14 09:22:54;;;;;;;13.00;4.10;;;23.70;72.60;;;;;;5000296;28;20053;-67
2022/05/14 09:25:35;;;;;;;11.85;5.32;;;23.90;72.60;;;;;;5005739;28;20092;-67
2022/05/14 09:28:21;;;;;;;13.40;4.55;;;25.60;73.90;;;;;;4997989;28;20068;-67
2022/05/14 09:30:56;;;;;;;12.13;3.97;;;23.60;73.40;;;;;;4996854;28;20077;-68
2022/05/14 09:33:40;;;;;;;11.38;4.82;;;23.30;74.70;;;;;;4997913;28;20037;-67
2022/05/14 09:36:18;;;;;;;11.40;5.00;;;22.80;75.80;;;;;;4998646;28;20042;-70
2022/05/14 09:38:45;;;;;;;11.55;4.63;;;23.40;73.70;;;;;;5001795;28;20813;-67
2022/05/14 09:41:19;;;;;;;13.23;4.60;;;23.80;74.70;;;;;;4997745;28;20505;-67
2022/05/14 09:43:45;;;;;;;9.25;3.47;;;23.60;72.50;;;;;;4997639;28;20090;-67
2022/05/14 09:46:24;;;;;;;11.25;5.30;;;24.30;73.90;;;;;;5000035;28;21006;-68
2022/05/14 09:48:54;;;;;;;10.45;3.60;;;25.00;70.70;;;;;;4998025;28;20049;-66
2022/05/14 09:51:31;;;;;;;12.80;4.13;;;25.20;71.50;;;;;;4998035;28;20041;-66
2022/05/14 09:54:14;;;;;;;12.20;4.13;;;25.20;68.20;;;;;;5003219;28;20656;-66
2022/05/14 09:56:49;;;;;;;14.82;4.28;;;25.00;68.40;;;;;;4996637;28;20041;-67
2022/05/14 09:59:42;;;;;;;8.48;3.83;;;24.50;69.00;;;;;;5000133;28;20230;-66
2022/05/14 10:02:18;;;;;;;10.85;4.00;;;24.20;68.00;;;;;;4999767;28;20060;-66
2022/05/14 10:05:05;;;;;;;14.73;5.28;;;24.10;70.50;;;;;;4999673;28;20048;-67
2022/05/14 10:07:42;;;;;;;11.05;4.35;;;24.20;68.80;;;;;;4999279;28;20057;-65
2022/05/14 10:10:32;;;;;;;12.88;4.10;;;23.70;71.10;;;;;;5006605;28;20132;-66
2022/05/14 10:13:05;;;;;;;10.80;4.57;;;23.80;73.00;;;;;;4999185;28;20041;-66
2022/05/14 10:15:53;;;;;;;15.00;4.50;;;24.10;69.70;;;;;;4996830;28;20061;-66
2022/05/14 10:18:56;;;;;;;13.68;4.65;;;23.60;70.20;;;;;;5006856;28;20119;-67
2022/05/14 10:21:34;;;;;;;;;;;22.90;71.00;;;;;;5003132;28;20045;-66
2022/05/14 10:27:04;;;;;;;7.57;4.18;;;22.10;71.90;;;;;;5004730;28;20088;-67
2022/05/14 10:29:42;;;;;;;12.85;4.47;;;21.90;72.30;;;;;;5003682;28;20056;-67
2022/05/14 10:32:18;;;;;;;10.57;4.70;;;22.50;73.20;;;;;;5000925;28;20056;-67
2022/05/14 10:34:50;;;;;;;12.88;4.28;;;23.30;72.80;;;;;;5004536;28;20509;-67
2022/05/14 10:37:25;;;;;;;10.23;4.03;;;23.80;70.90;;;;;;5003443;28;20053;-67
2022/05/14 10:40:15;;;;;;;11.07;4.72;;;24.30;71.50;;;;;;5009539;28;20366;-67
2022/05/14 10:42:53;;;;;;;9.68;4.75;;;24.30;69.70;;;;;;5007611;28;20118;-67
2022/05/14 10:45:22;;;;;;;11.30;3.88;;;24.00;69.50;;;;;;5006654;28;20493;-67
2022/05/14 10:48:20;;;;;;;11.55;4.40;;;23.40;69.70;;;;;;5008258;28;20053;-66
2022/05/14 10:50:46;;;;;;;15.60;5.30;;;22.80;69.50;;;;;;4998786;28;20050;-66
2022/05/14 10:53:11;;;;;;;8.40;3.95;;;22.90;71.60;;;;;;5009066;28;20057;-67
2022/05/14 10:55:59;;;;;;;12.05;4.88;;;23.50;72.10;;;;;;5006871;28;20041;-67
2022/05/14 10:58:45;;;;;;;8.57;3.85;;;23.80;69.50;;;;;;5010764;28;20058;-67
2022/05/14 11:01:34;;;;;;;11.35;5.18;;;23.80;71.00;;;;;;5004917;28;20053;-67
2022/05/14 11:04:22;;;;;;;12.05;5.10;;;24.00;70.20;;;;;;5012269;28;20064;-67
2022/05/14 11:06:56;;;;;;;12.88;4.45;;;23.80;68.70;;;;;;5006554;28;20058;-67
2022/05/14 11:09:49;;;;;;;11.13;4.05;;;23.80;68.50;;;;;;5008024;28;20057;-67
2022/05/14 11:12:29;;;;;;;;;;;23.20;70.40;;;;;;5005810;28;20096;-66
2022/05/14 11:14:57;;;;;;;11.35;4.50;;;22.80;71.90;;;;;;5014978;28;20030;-67
2022/05/14 11:17:33;;;;;;;10.13;4.45;;;22.40;71.60;;;;;;5010615;28;20136;-66
2022/05/14 11:20:02;;;;;;;11.25;3.90;;;22.50;71.10;;;;;;5002082;28;20061;-67
2022/05/14 11:22:32;;;;;;;11.48;5.28;;;22.70;71.30;;;;;;5001459;28;20663;-68
2022/05/14 11:25:11;;;;;;;10.40;5.70;;;22.90;71.40;;;;;;5003890;28;20045;-68
2022/05/14 11:27:38;;;;;;;12.40;3.95;;;22.80;70.80;;;;;;5006602;28;20038;-66
2022/05/14 11:30:08;;;;;;;12.63;4.00;;;22.50;71.70;;;;;;5000680;28;20115;-67
2022/05/14 11:33:01;;;;;;;14.55;5.15;;;22.20;74.20;;;;;;5002692;28;20060;-66
2022/05/14 11:35:39;;;;;;;16.55;4.30;;;21.90;72.70;;;;;;4997501;28;20065;-67
2022/05/14 11:38:14;;;;;;;10.52;4.18;;;21.80;74.50;;;;;;5001692;28;20041;-66
2022/05/14 11:40:39;;;;;;;11.30;4.70;;;21.60;73.20;;;;;;5008086;28;20378;-67
2022/05/14 11:43:07;;;;;;;13.82;5.07;;;21.70;74.00;;;;;;5010684;28;20052;-66
2022/05/14 11:45:34;;;;;;;11.43;4.50;;;21.80;73.60;;;;;;5003989;28;20241;-67
2022/05/14 11:48:17;;;;;;;12.05;4.65;;;22.20;73.50;;;;;;5002287;28;20141;-68
2022/05/14 11:51:01;;;;;;;9.70;4.22;;;22.50;73.80;;;;;;4998716;28;20100;-67
2022/05/14 11:53:38;;;;;;;9.38;5.55;;;22.70;73.30;;;;;;5001825;28;20144;-68
2022/05/14 11:56:25;;;;;;;12.95;4.55;;;22.80;72.60;;;;;;4999809;28;20718;-68
2022/05/14 11:59:30;;;;;;;13.25;5.60;;;22.20;71.90;;;;;;4996535;28;20767;-67
2022/05/14 12:02:00;;;;;;;9.15;4.80;;;22.40;73.10;;;;;;4997975;28;20042;-67
2022/05/14 12:04:31;;;;;;;7.45;3.92;;;22.70;72.80;;;;;;4997515;28;20057;-67
2022/05/14 12:07:35;;;;;;;15.95;5.50;;;23.10;71.30;;;;;;4998560;28;20583;-68
2022/05/14 12:10:30;;;;;;;11.30;4.32;;;23.40;70.70;;;;;;5000186;28;20154;-67
2022/05/14 12:13:06;;;;;;;13.43;4.40;;;23.70;68.70;;;;;;4993468;28;20054;-67
2022/05/14 12:15:32;;;;;;;9.32;4.90;;;23.90;69.30;;;;;;4999133;28;20065;-67
2022/05/14 12:18:00;;;;;;;13.48;3.90;;;24.00;69.20;;;;;;5001690;28;20155;-67
2022/05/14 12:20:31;;;;;;;8.30;3.65;;;24.00;68.80;;;;;;4999111;28;20056;-67
2022/05/14 12:22:59;;;;;;;13.20;5.07;;;23.90;66.90;;;;;;4999980;28;20049;-67
2022/05/14 12:25:35;;;;;;;11.55;4.97;;;23.70;67.70;;;;;;5000828;28;20129;-67
2022/05/14 12:28:01;;;;;;;14.98;5.20;;;23.50;67.50;;;;;;5001925;28;20049;-68
2022/05/14 12:33:18;;;;;;;12.73;4.78;;;22.40;68.90;;;;;;4999916;28;20058;-66
2022/05/14 12:35:53;;;;;;;10.85;4.72;;;22.20;69.60;;;;;;5005512;28;20049;-66
2022/05/14 12:38:43;;;;;;;9.65;3.90;;;22.20;70.60;;;;;;5001585;28;20041;-66
2022/05/14 12:41:27;;;;;;;14.23;4.45;;;22.20;70.30;;;;;;4996201;28;20057;-65
2022/05/14 12:43:53;;;;;;;10.88;4.13;;;22.20;70.30;;;;;;4998453;28;20069;-66
2022/05/14 12:46:22;;;;;;;11.23;4.68;;;22.10;70.80;;;;;;4999892;28;20730;-66
2022/05/14 12:48:54;;;;;;;9.73;4.55;;;22.00;69.90;;;;;;4999767;28;20057;-65
2022/05/14 12:51:23;;;;;;;10.32;5.45;;;22.10;69.80;;;;;;4999562;28;20079;-66
2022/05/14 12:53:49;;;;;;;10.30;3.55;;;22.10;70.70;;;;;;4998105;28;20057;-66
2022/05/14 12:56:17;;;;;;;10.13;4.65;;;22.40;71.00;;;;;;5001075;28;20037;-66
2022/05/14 12:58:43;;;;;;;9.50;4.22;;;22.50;70.40;;;;;;5000038;28;20638;-66
2022/05/14 13:01:10;;;;;;;10.50;4.05;;;22.90;70.00;;;;;;4999451;28;20042;-66
2022/05/14 13:03:46;;;;;;;10.13;3.92;;;23.30;68.50;;;;;;5011106;28;20049;-65
2022/05/14 13:06:20;;;;;;;9.57;4.20;;;23.50;68.30;;;;;;4999652;28;20158;-66
2022/05/14 13:08:54;;;;;;;9.38;3.88;;;23.30;69.20;;;;;;4999374;28;20062;-65
2022/05/14 13:11:23;;;;;;;13.60;4.25;;;23.30;69.30;;;;;;5002745;28;20034;-65
2022/05/14 13:13:56;;;;;;;15.60;5.00;;;23.20;69.50;;;;;;5005386;28;20056;-66